Latest Weather Observations for Liawenee

IDT60801

Issued at 2:31 pm EDT Monday 8 February 2016 (issued every 30 minutes, with the page automatically refreshed every 10 minutes)

About weather observations | Map of weather stations | Latest weather observations for TAS | Other Formats
Station Details ID: 096033 Name: LIAWENEE Lat: -41.90 Lon: 146.67 Height: 1057.0 m
Data from the previous 72 hours. | See also: Recent months at Liawenee
Date/Time
EDT
Temp
°C
App
Temp
°C
Dew
Point
Rel
Hum
%
Delta-T
°C
Wind Press
QNH
hPa
Press
MSL
hPa
Rain
since 9 am
mm
Dir
 
Spd
km/h
Gust
km/h
Spd
kts
Gust
kts
08/02:30pm 21.3 15.2 6.4 38 7.9 WSW 28 39 15 21 1021.2 1019.0 0.0
08/02:00pm 21.2 15.4 8.1 43 7.2 W 28 37 15 20 1021.2 1019.0 0.0
08/01:30pm 20.9 15.6 6.8 40 7.6 SW 24 35 13 19 1021.2 1019.0 0.0
08/01:00pm 20.8 16.6 8.4 45 6.8 WSW 20 30 11 16 1021.3 1019.1 0.0
08/12:30pm 19.7 14.0 5.0 38 7.6 WSW 24 35 13 19 1021.3 1019.1 0.0
08/12:00pm 19.6 15.1 7.0 44 6.7 SW 20 30 11 16 1021.2 1019.0 0.0
08/11:30am 18.7 14.1 6.5 45 6.4 SW 20 30 11 16 1021.3 1019.1 0.0
08/11:00am 17.3 12.6 6.2 48 5.7 WSW 20 30 11 16 1021.2 1019.0 0.0
08/10:30am 16.9 12.7 8.3 57 4.6 WSW 20 28 11 15 1021.3 1019.1 0.0
08/10:00am 15.6 11.8 9.1 65 3.5 WSW 19 28 10 15 1021.4 1019.3 0.0
08/09:30am 14.7 9.9 8.9 68 3.1 SW 24 30 13 16 1021.3 1019.1 0.0
08/09:00am 13.8 9.0 9.0 73 2.6 SW 24 33 13 18 1021.3 1019.1 0.0
08/08:30am 12.8 9.9 9.6 81 1.7 WSW 15 20 8 11 1021.2 1019.0 0.0
08/08:00am 11.8 9.7 9.7 87 1.1 W 11 15 6 8 1020.7 1018.6 0.0
08/07:30am 10.5 8.3 9.3 92 0.6 W 11 15 6 8 1020.6 1018.5 0.0
08/07:00am 8.8 6.3 8.2 96 0.3 W 11 13 6 7 1020.4 1018.2 0.0
08/06:30am 9.1 7.1 8.8 98 0.2 WNW 9 11 5 6 1020.2 1018.0 0.0
08/06:00am 9.3 7.4 9.0 98 0.2 WNW 9 13 5 7 1020.2 1018.0 0.0
08/05:30am 7.9 6.0 7.5 97 0.2 WSW 7 9 4 5 1020.0 1017.8 0.0
08/05:00am 8.1 6.2 7.5 96 0.3 WSW 7 9 4 5 1019.7 1017.6 0.0
08/04:30am 9.2 7.6 8.6 96 0.3 NW 7 9 4 5 1019.8 1017.7 0.0
08/04:00am 10.3 8.6 10.0 98 0.2 NW 9 13 5 7 1019.8 1017.7 0.0
08/03:30am 9.3 8.3 9.0 98 0.2 WNW 4 7 2 4 1020.1 1017.9 0.0
08/03:00am 7.4 6.5 6.2 92 0.6 CALM 0 0 0 0 1020.3 1018.1 0.0
08/02:30am 8.8 7.2 8.0 95 0.4 WNW 6 7 3 4 1020.3 1018.1 0.0
08/02:00am 9.4 7.9 8.5 94 0.5 W 6 7 3 4 1020.5 1018.3 0.0
08/01:30am 10.5 8.8 10.0 97 0.3 WNW 9 11 5 6 1020.5 1018.3 0.0
08/01:00am 9.9 8.0 9.1 95 0.4 W 9 11 5 6 1020.7 1018.6 0.0
08/12:30am 10.3 9.0 9.1 92 0.6 W 6 7 3 4 1020.5 1018.3 0.0
08/12:00am 11.0 9.7 9.8 92 0.6 WSW 7 9 4 5 1020.7 1018.6 0.0
 
Date/Time
EDT
Temp
°C
App
Temp
°C
Dew
Point
Rel
Hum
%
Delta-T
°C
Wind Press
QNH
hPa
Press
MSL
hPa
Rain
since 9 am
mm
Dir
 
Spd
km/h
Gust
km/h
Spd
kts
Gust
kts
07/11:30pm 12.3 10.8 10.7 90 0.9 WSW 9 13 5 7 1020.7 1018.6 0.0
07/11:00pm 13.3 11.1 10.8 85 1.4 WSW 13 17 7 9 1020.7 1018.6 0.0
07/10:30pm 13.7 12.3 11.0 84 1.5 WSW 9 13 5 7 1020.7 1018.6 0.0
07/10:00pm 14.5 12.8 11.3 81 1.8 WSW 11 13 6 7 1020.7 1018.6 0.0
07/09:30pm 15.3 13.7 11.5 78 2.2 WSW 11 13 6 7 1020.4 1018.2 0.0
07/09:00pm 16.1 13.7 11.5 74 2.6 SSW 15 19 8 10 1020.0 1017.8 0.0
07/08:30pm 17.7 15.2 12.4 71 3.1 WSW 17 24 9 13 1019.7 1017.6 0.0
07/08:00pm 18.4 17.3 13.1 71 3.1 NNW 11 20 6 11 1019.2 1017.0 0.0
07/07:30pm 18.2 17.5 13.3 73 2.9 NNW 9 15 5 8 1018.8 1016.6 0.0
07/07:00pm 19.0 18.3 13.2 69 3.4 N 9 15 5 8 1018.6 1016.4 0.0
07/06:30pm 19.5 18.4 13.2 67 3.8 N 11 15 6 8 1018.4 1016.2 0.0
07/06:00pm 21.6 19.7 14.3 63 4.5 NNE 17 22 9 12 1018.4 1016.2 0.0
07/05:30pm 21.0 19.8 12.7 59 4.9 N 11 20 6 11 1018.4 1016.2 0.0
07/05:00pm 20.8 19.5 12.5 59 4.9 N 11 17 6 9 1018.5 1016.3 0.0
07/04:30pm 21.5 18.9 12.1 55 5.5 ENE 17 30 9 16 1018.5 1016.3 0.0
07/04:00pm 21.1 18.6 12.3 57 5.2 ENE 17 28 9 15 1018.5 1016.3 0.0
07/03:30pm 22.6 18.4 12.5 53 6.0 ENE 26 33 14 18 1018.6 1016.4 0.0
07/03:00pm 21.6 18.2 12.5 56 5.4 E 22 39 12 21 1018.8 1016.6 0.0
07/02:30pm 22.6 20.4 12.0 51 6.3 NE 15 33 8 18 1019.1 1016.9 0.0
07/02:00pm 21.5 17.8 12.6 57 5.3 ENE 24 35 13 19 1019.2 1017.0 0.0
07/01:30pm 21.1 17.6 13.3 61 4.7 ENE 24 32 13 17 1019.3 1017.1 0.0
07/01:00pm 19.4 15.3 11.4 60 4.6 ENE 24 32 13 17 1019.5 1017.3 0.0
07/12:30pm 19.6 16.7 12.4 63 4.2 ENE 19 28 10 15 1019.6 1017.4 0.0
07/12:00pm 18.9 16.7 12.2 65 3.9 ENE 15 24 8 13 1020.0 1017.8 0.0
07/11:30am 17.6 15.6 10.2 62 4.1 E 11 20 6 11 1020.4 1018.2 0.0
07/11:00am 16.7 14.7 10.1 65 3.7 ESE 11 17 6 9 1020.4 1018.2 0.0
07/10:30am 15.9 13.4 10.9 72 2.8 E 15 24 8 13 1020.4 1018.2 0.0
07/10:00am 15.9 13.6 10.4 70 3.1 ENE 13 20 7 11 1020.5 1018.3 0.0
07/09:30am 14.4 13.4 10.4 77 2.2 SE 6 9 3 5 1020.5 1018.3 0.0
07/09:00am 13.3 12.5 9.7 79 1.9 S 4 7 2 4 1020.8 1018.7 0.0
07/08:30am 12.8 12.0 9.8 82 1.6 SSE 4 9 2 5 1020.5 1018.3 0.0
07/08:00am 12.2 10.5 9.8 85 1.3 SSW 9 13 5 7 1020.5 1018.3 0.0
07/07:30am 11.9 10.6 9.8 87 1.1 W 7 11 4 6 1020.4 1018.2 0.0
07/07:00am 11.4 9.7 9.7 89 0.9 W 9 15 5 8 1020.3 1018.1 0.0
07/06:30am 11.2 9.8 9.5 89 0.9 WNW 7 13 4 7 1019.8 1017.7 0.0
07/06:00am 11.0 9.6 9.4 90 0.8 WNW 7 11 4 6 1019.7 1017.6 0.0
07/05:30am 10.9 9.5 9.5 91 0.7 WNW 7 13 4 7 1019.3 1017.1 0.0
07/05:00am 10.9 10.6 10.0 94 0.5 WNW 2 9 1 5 1019.3 1017.1 0.0
07/04:30am 10.5 10.1 9.6 94 0.5 NE 2 7 1 4 1019.1 1016.9 0.0
07/04:00am 10.5 10.4 9.3 92 0.6 CALM 0 0 0 0 1019.2 1017.0 0.0
07/03:30am 11.3 10.6 9.9 91 0.8 N 4 9 2 5 1019.5 1017.3 0.0
07/03:00am 11.4 10.1 10.0 91 0.8 N 7 11 4 6 1019.8 1017.7 0.0
07/02:30am 11.4 9.8 10.1 92 0.7 NNW 9 15 5 8 1020.0 1017.8 0.0
07/02:00am 10.3 10.3 9.7 96 0.3 CALM 0 6 0 3 1020.1 1017.9 0.0
07/01:30am 9.7 9.1 8.9 95 0.4 NNE 2 6 1 3 1020.1 1017.9 0.0
07/01:00am 9.2 8.9 8.6 96 0.3 CALM 0 7 0 4 1020.4 1018.2 0.0
07/12:30am 8.1 7.0 7.0 93 0.5 WNW 2 7 1 4 1020.5 1018.3 0.0
07/12:00am 9.3 8.6 8.7 96 0.3 SE 2 9 1 5 1020.4 1018.2 0.0
 
Date/Time
EDT
Temp
°C
App
Temp
°C
Dew
Point
Rel
Hum
%
Delta-T
°C
Wind Press
QNH
hPa
Press
MSL
hPa
Rain
since 9 am
mm
Dir
 
Spd
km/h
Gust
km/h
Spd
kts
Gust
kts
06/11:30pm 8.8 7.0 7.3 90 0.8 SW 6 7 3 4 1020.4 1018.2 0.0
06/11:00pm 10.2 9.2 8.8 91 0.7 NE 4 7 2 4 1020.4 1018.2 0.0
06/10:30pm 10.8 9.0 9.4 91 0.7 NNE 9 11 5 6 1020.6 1018.5 0.0
06/10:00pm 11.2 11.1 9.5 89 0.9 CALM 0 0 0 0 1020.9 1018.8 0.0
06/09:30pm 12.4 11.2 10.3 87 1.1 NNW 7 13 4 7 1020.8 1018.7 0.0
06/09:00pm 13.0 11.7 9.8 81 1.7 N 7 11 4 6 1020.4 1018.2 0.0
06/08:30pm 14.1 12.3 10.7 80 1.9 NNE 11 15 6 8 1020.2 1018.0 0.0
06/08:00pm 15.8 14.4 10.8 72 2.8 NNE 9 13 5 7 1020.2 1018.0 0.0
06/07:30pm 16.8 14.7 11.3 70 3.1 NNE 13 20 7 11 1020.0 1017.8 0.0
06/07:00pm 17.5 14.3 11.3 67 3.5 NNE 19 26 10 14 1019.8 1017.7 0.0
06/06:30pm 18.2 15.1 11.5 65 3.9 NNE 19 28 10 15 1019.7 1017.6 0.0
06/06:00pm 18.9 15.4 11.0 60 4.5 NNE 20 30 11 16 1019.7 1017.6 0.0
06/05:30pm 19.7 16.0 11.5 59 4.8 NE 22 32 12 17 1019.6 1017.4 0.0
06/05:00pm 19.9 15.7 11.1 57 5.1 NNE 24 30 13 16 1019.6 1017.4 0.0
06/04:30pm 20.7 16.4 11.9 57 5.2 NNE 26 35 14 19 1019.7 1017.6 0.0
06/04:00pm 21.5 18.8 11.8 54 5.7 NNE 17 26 9 14 1020.0 1017.8 0.0
06/03:30pm 21.5 19.5 11.5 53 5.8 N 13 19 7 10 1020.3 1018.1 0.0
06/03:00pm 21.5 18.9 12.1 55 5.5 NNE 17 30 9 16 1020.5 1018.3 0.0
06/02:30pm 20.8 17.6 11.2 54 5.6 NNE 19 26 10 14 1020.9 1018.8 0.0
06/02:00pm 20.7 17.0 10.2 51 6.0 NNE 20 28 11 15 1021.2 1019.0 0.0
06/01:30pm 21.0 18.0 10.5 51 6.0 NNE 17 28 9 15 1021.4 1019.3 0.0
06/01:00pm 20.8 18.1 11.7 56 5.3 NNE 17 26 9 14 1021.6 1019.5 0.0
06/12:30pm 20.4 17.5 11.1 55 5.4 NE 17 26 9 14 1021.8 1019.7 0.0
06/12:00pm 19.7 16.6 10.4 55 5.3 NNE 17 24 9 13 1022.3 1020.2 0.0
06/11:30am 19.5 17.1 10.2 55 5.3 NNE 13 20 7 11 1022.6 1020.5 0.0
06/11:00am 18.6 16.8 10.9 61 4.4 E 11 20 6 11 1022.8 1020.7 0.0
06/10:30am 17.1 15.5 10.2 64 3.9 WSW 9 15 5 8 1022.9 1020.8 0.0
06/10:00am 16.7 16.5 11.8 73 2.8 NNW 4 7 2 4 1023.2 1021.1 0.0
06/09:30am 16.0 15.7 11.4 74 2.6 NNE 4 7 2 4 1023.2 1021.1 0.0
06/09:00am 15.1 14.1 10.9 76 2.3 N 7 13 4 7 1023.2 1021.1 0.0
06/08:30am 13.7 12.7 11.0 84 1.5 NNW 7 11 4 6 1022.9 1020.8 0.0
06/08:00am 12.3 12.5 10.4 88 1.0 CALM 0 0 0 0 1022.7 1020.6 0.0
06/07:30am 11.7 10.1 10.1 90 0.9 NNE 9 17 5 9 1022.4 1020.3 0.0
06/07:00am 11.8 9.5 10.4 91 0.8 NNE 13 19 7 10 1022.2 1020.0 0.0
06/06:30am 11.7 9.7 10.3 91 0.8 N 11 22 6 12 1022.2 1020.0 0.0
06/06:00am 11.6 10.0 10.3 92 0.7 N 9 17 5 9 1022.2 1020.0 0.0
06/05:30am 11.6 9.3 10.3 92 0.7 N 13 19 7 10 1022.2 1020.0 0.0
06/05:00am 11.9 9.5 10.1 89 1.0 N 13 24 7 13 1022.3 1020.2 0.0
06/04:30am 11.9 10.3 10.3 90 0.9 NNE 9 19 5 10 1022.4 1020.3 0.0
06/04:00am 11.9 10.4 10.6 92 0.7 NNE 9 15 5 8 1022.4 1020.3 0.0
06/03:30am 11.2 10.1 10.7 97 0.3 NNW 7 13 4 7 1022.6 1020.5 0.0
06/03:00am 9.0 8.7 8.6 97 0.2 CALM 0 4 0 2 1022.8 1020.7 0.0
06/02:30am 8.9 7.7 8.1 95 0.4 S 4 7 2 4 1023.2 1021.1 0.0
06/02:00am 10.0 8.7 9.1 94 0.5 SSW 6 7 3 4 1023.5 1021.4 0.0
06/01:30am 11.7 9.8 10.6 93 0.6 NE 11 15 6 8 1023.8 1021.7 0.0
06/01:00am 12.5 11.3 11.6 94 0.5 NNE 9 13 5 7 1024.2 1022.1 0.0
06/12:30am 12.4 11.1 11.3 93 0.6 NNE 9 13 5 7 1024.4 1022.3 0.0
06/12:00am 12.5 11.4 11.9 96 0.3 NE 9 11 5 6 1024.5 1022.4 0.0
 
Date/Time
EDT
Temp
°C
App
Temp
°C
Dew
Point
Rel
Hum
%
Delta-T
°C
Wind Press
QNH
hPa
Press
MSL
hPa
Rain
since 9 am
mm
Dir
 
Spd
km/h
Gust
km/h
Spd
kts
Gust
kts
05/11:30pm 11.9 11.0 10.8 93 0.6 NE 6 7 3 4 1024.8 1022.8 0.0
05/11:00pm 12.4 10.8 11.6 95 0.4 NNE 11 15 6 8 1024.7 1022.6 0.0
05/10:30pm 11.4 10.6 9.7 89 0.9 NNW 4 7 2 4 1024.9 1022.9 0.0
05/10:00pm 12.7 11.8 10.8 88 1.0 WNW 6 7 3 4 1024.8 1022.8 0.0
05/09:30pm 14.0 13.4 12.2 89 1.0 NW 7 11 4 6 1024.7 1022.6 0.0
05/09:00pm 14.8 13.2 12.7 87 1.2 NNE 13 17 7 9 1024.3 1022.2 0.0
05/08:30pm 15.6 14.7 12.7 83 1.7 N 9 13 5 7 1024.2 1022.1 0.0
05/08:00pm 16.6 15.4 12.9 79 2.2 NE 11 15 6 8 1023.7 1021.6 0.0
05/07:30pm 17.8 16.2 12.9 73 2.9 NNE 13 17 7 9 1023.4 1021.3 0.0
05/07:00pm 18.6 17.1 13.0 70 3.3 NNE 13 19 7 10 1023.3 1021.2 0.0
05/06:30pm 19.4 17.4 12.7 65 4.0 ENE 15 20 8 11 1023.2 1021.1 0.0
05/06:00pm 20.2 17.8 12.7 62 4.4 ENE 17 22 9 12 1023.2 1021.1 0.0
05/05:30pm 20.4 19.1 12.6 61 4.6 E 11 19 6 10 1023.3 1021.2 0.0
05/05:00pm 20.2 19.0 12.7 62 4.4 NNE 11 19 6 10 1023.3 1021.2 0.0
05/04:30pm 21.0 19.4 12.7 59 4.9 NE 13 20 7 11 1023.4 1021.3 0.0
05/04:00pm 21.5 19.0 12.4 56 5.4 NE 17 24 9 13 1023.5 1021.4 0.0
05/03:30pm 21.1 19.6 12.0 56 5.4 ENE 11 19 6 10 1023.6 1021.5 0.0
05/03:00pm 21.3 20.2 13.0 59 5.0 NNE 11 20 6 11 1023.6 1021.5 0.0

Other Formats:

Comma delimited format used in spreadsheet applications
http://www.bom.gov.au/fwo/IDT60801/IDT60801.95959.axf

JavaScript Object Notation format (JSON) in row-major order
http://www.bom.gov.au/fwo/IDT60801/IDT60801.95959.json